Terminal Aerodrome Forecast
Issued by NWS Cleveland, OH

Home | Current Version | Previous Version | Graphics & Text | Print | Product List | Glossary Off
Versions: 1 2 3 4 5 6 7 8 9 10 11 12

172
FTUS41 KCLE 221739
TAFMFD
TAF
KMFD 221739Z 2218/2318 18010G18KT P6SM SCT250
     FM222200 16008KT P6SM SCT120 BKN200
     FM231200 16010KT P6SM BKN050
     FM231400 16009KT P6SM VCSH BKN030
     FM231600 17010KT 4SM -RA OVC009=

USA.gov is the U.S. government's official web portal to all federal, state and local government web resources and services.